Ana Sayfa
METAR-TAF:

METAR-TAF

Havaalanları :

Brookings, Güney Dakota, Amerika Birleşik Devletleri

Enlem: 44-18N, Boylam: 096-49W, yükseklik: 502 m

Güncel hava durumu gözlemi

Rapor saat 21:56 UTC de 39 dakika önce yapıldı.
Rüzgar kuzey/kuzeybatıdan 14 kt ve 18 kt'a kadar ani rüzgarlar
Sıcaklık 26°C
Nem 58%
Basınç 1006 hPa
Görüş mesafesi: 16.1 km
4700 ft yükseklikte parçalı bulutlu

METAR: KBKX 162156Z AUTO 33014G18KT 10SM SCT047 26/17 A2971 RMK AO2 SLP060 T02560172

Saat: 17:35 (22:35 UTC)


TAF: eksik

4.000'den fazla havaalanı için hava durumu gözlemleri ve tahminleri (METAR ve TAF raporları).

Kullanılabilir istasyonlar harita üzerinde sarı ve kırmızı noktalarla gösterilir.

İstasyonun adını görmek için fareyi noktanın üzerinde gezdirin.

Sonrasında hava gözlem ve tahminlerini görmek için tıklayın.

Haritayı değiştirmek için: yaklaştırmak için siyah artı işaretli yeşil düğmeye ve uzaklaştırmak için de eksi işaretli düğmeye hızla tıklayın; bitişik haritalar için yeşil okları kullanın.


METAR-TAF: